sensor_id;sensor_type;location;lat;lon;timestamp;pressure;altitude;pressure_sealevel;temperature;humidity
56582;BME280;42463;52.214;21.238;2022-07-10T00:00:07;100228.83;;;17.21;62.82
56582;BME280;42463;52.214;21.238;2022-07-10T00:02:44;100230.02;;;17.22;62.87
56582;BME280;42463;52.214;21.238;2022-07-10T00:05:12;100228.06;;;17.22;62.80
56582;BME280;42463;52.214;21.238;2022-07-10T00:07:38;100232.78;;;17.15;62.88
56582;BME280;42463;52.214;21.238;2022-07-10T00:10:05;100233.11;;;17.09;63.17
56582;BME280;42463;52.214;21.238;2022-07-10T00:12:31;100235.21;;;17.09;63.50
56582;BME280;42463;52.214;21.238;2022-07-10T00:14:57;100235.12;;;17.10;63.52
56582;BME280;42463;52.214;21.238;2022-07-10T00:17:24;100233.86;;;17.10;63.45
56582;BME280;42463;52.214;21.238;2022-07-10T00:19:50;100235.92;;;17.12;63.47
56582;BME280;42463;52.214;21.238;2022-07-10T00:22:16;100227.71;;;17.11;63.47
56582;BME280;42463;52.214;21.238;2022-07-10T00:24:43;100230.79;;;17.13;63.37
56582;BME280;42463;52.214;21.238;2022-07-10T00:27:09;100231.48;;;17.12;63.39
56582;BME280;42463;52.214;21.238;2022-07-10T00:29:35;100225.91;;;17.13;63.43
56582;BME280;42463;52.214;21.238;2022-07-10T00:32:01;100219.35;;;17.12;63.35
56582;BME280;42463;52.214;21.238;2022-07-10T00:34:28;100219.19;;;17.09;63.55
56582;BME280;42463;52.214;21.238;2022-07-10T00:36:54;100216.08;;;17.08;63.78
56582;BME280;42463;52.214;21.238;2022-07-10T00:39:20;100211.51;;;17.07;63.90
56582;BME280;42463;52.214;21.238;2022-07-10T00:41:46;100218.08;;;17.04;64.03
56582;BME280;42463;52.214;21.238;2022-07-10T00:44:12;100212.52;;;16.99;64.55
56582;BME280;42463;52.214;21.238;2022-07-10T00:46:38;100212.13;;;16.97;64.32
56582;BME280;42463;52.214;21.238;2022-07-10T00:49:05;100208.27;;;16.92;64.79
56582;BME280;42463;52.214;21.238;2022-07-10T00:51:31;100205.61;;;16.87;64.99
56582;BME280;42463;52.214;21.238;2022-07-10T00:53:59;100206.53;;;16.82;64.96
56582;BME280;42463;52.214;21.238;2022-07-10T00:56:26;100198.48;;;16.76;64.89
56582;BME280;42463;52.214;21.238;2022-07-10T00:58:53;100198.40;;;16.70;65.00
56582;BME280;42463;52.214;21.238;2022-07-10T01:01:53;100195.56;;;16.66;64.93
56582;BME280;42463;52.214;21.238;2022-07-10T01:04:20;100196.27;;;16.60;64.68
56582;BME280;42463;52.214;21.238;2022-07-10T01:06:46;100192.92;;;16.57;64.86
56582;BME280;42463;52.214;21.238;2022-07-10T01:09:12;100187.34;;;16.54;64.87
56582;BME280;42463;52.214;21.238;2022-07-10T01:11:39;100190.83;;;16.52;64.95
56582;BME280;42463;52.214;21.238;2022-07-10T01:14:06;100192.34;;;16.50;64.76
56582;BME280;42463;52.214;21.238;2022-07-10T01:16:32;100184.55;;;16.50;64.67
56582;BME280;42463;52.214;21.238;2022-07-10T01:19:00;100187.63;;;16.50;64.63
56582;BME280;42463;52.214;21.238;2022-07-10T01:21:30;100187.16;;;16.48;64.84
56582;BME280;42463;52.214;21.238;2022-07-10T01:23:57;100182.23;;;16.46;65.06
56582;BME280;42463;52.214;21.238;2022-07-10T01:26:24;100178.17;;;16.42;65.54
56582;BME280;42463;52.214;21.238;2022-07-10T01:28:52;100181.29;;;16.42;65.73
56582;BME280;42463;52.214;21.238;2022-07-10T01:31:19;100180.06;;;16.40;65.64
56582;BME280;42463;52.214;21.238;2022-07-10T01:33:46;100177.28;;;16.39;65.35
56582;BME280;42463;52.214;21.238;2022-07-10T01:36:13;100178.33;;;16.36;65.29
56582;BME280;42463;52.214;21.238;2022-07-10T01:38:39;100177.81;;;16.34;65.59
56582;BME280;42463;52.214;21.238;2022-07-10T01:41:06;100178.21;;;16.33;65.62
56582;BME280;42463;52.214;21.238;2022-07-10T01:43:33;100178.85;;;16.37;66.02
56582;BME280;42463;52.214;21.238;2022-07-10T01:45:59;100168.14;;;16.39;65.78
56582;BME280;42463;52.214;21.238;2022-07-10T01:48:25;100168.20;;;16.45;65.71
56582;BME280;42463;52.214;21.238;2022-07-10T01:50:51;100165.51;;;16.53;65.38
56582;BME280;42463;52.214;21.238;2022-07-10T01:53:17;100162.18;;;16.61;65.20
56582;BME280;42463;52.214;21.238;2022-07-10T01:55:43;100161.77;;;16.66;64.57
56582;BME280;42463;52.214;21.238;2022-07-10T01:58:09;100163.95;;;16.70;64.43
56582;BME280;42463;52.214;21.238;2022-07-10T02:00:35;100172.14;;;16.68;64.13
56582;BME280;42463;52.214;21.238;2022-07-10T02:03:01;100164.92;;;16.68;64.37
56582;BME280;42463;52.214;21.238;2022-07-10T02:05:44;100166.56;;;16.71;64.23
56582;BME280;42463;52.214;21.238;2022-07-10T02:08:11;100161.64;;;16.73;63.96
56582;BME280;42463;52.214;21.238;2022-07-10T02:10:37;100160.29;;;16.76;63.85
56582;BME280;42463;52.214;21.238;2022-07-10T02:13:03;100158.00;;;16.75;63.63
56582;BME280;42463;52.214;21.238;2022-07-10T02:15:29;100155.73;;;16.73;63.52
56582;BME280;42463;52.214;21.238;2022-07-10T02:17:55;100150.36;;;16.71;63.40
56582;BME280;42463;52.214;21.238;2022-07-10T02:20:21;100151.44;;;16.68;63.50
56582;BME280;42463;52.214;21.238;2022-07-10T02:22:47;100148.51;;;16.64;63.56
56582;BME280;42463;52.214;21.238;2022-07-10T02:25:13;100149.70;;;16.58;63.42
56582;BME280;42463;52.214;21.238;2022-07-10T02:27:39;100150.55;;;16.52;63.67
56582;BME280;42463;52.214;21.238;2022-07-10T02:30:08;100151.66;;;16.49;64.06
56582;BME280;42463;52.214;21.238;2022-07-10T02:32:34;100151.58;;;16.47;63.99
56582;BME280;42463;52.214;21.238;2022-07-10T02:35:00;100150.29;;;16.45;64.12
56582;BME280;42463;52.214;21.238;2022-07-10T02:37:26;100149.13;;;16.40;64.00
56582;BME280;42463;52.214;21.238;2022-07-10T02:39:52;100145.39;;;16.34;64.31
56582;BME280;42463;52.214;21.238;2022-07-10T02:42:18;100144.79;;;16.31;64.47
56582;BME280;42463;52.214;21.238;2022-07-10T02:44:44;100145.50;;;16.24;64.72
56582;BME280;42463;52.214;21.238;2022-07-10T02:47:10;100150.34;;;16.20;64.86
56582;BME280;42463;52.214;21.238;2022-07-10T02:49:36;100146.90;;;16.19;64.90
56582;BME280;42463;52.214;21.238;2022-07-10T02:52:02;100147.11;;;16.16;65.11
56582;BME280;42463;52.214;21.238;2022-07-10T02:54:29;100143.41;;;16.18;65.34
56582;BME280;42463;52.214;21.238;2022-07-10T02:56:55;100146.03;;;16.19;65.24
56582;BME280;42463;52.214;21.238;2022-07-10T02:59:21;100151.92;;;16.19;65.17
56582;BME280;42463;52.214;21.238;2022-07-10T03:01:47;100153.52;;;16.16;65.12
56582;BME280;42463;52.214;21.238;2022-07-10T03:04:13;100154.56;;;16.15;65.36
56582;BME280;42463;52.214;21.238;2022-07-10T03:06:39;100144.17;;;16.11;65.59
56582;BME280;42463;52.214;21.238;2022-07-10T03:09:05;100152.42;;;16.19;65.31
56582;BME280;42463;52.214;21.238;2022-07-10T03:11:31;100154.40;;;16.19;65.26
56582;BME280;42463;52.214;21.238;2022-07-10T03:13:57;100154.45;;;16.19;65.35
56582;BME280;42463;52.214;21.238;2022-07-10T03:16:23;100154.70;;;16.20;65.22
56582;BME280;42463;52.214;21.238;2022-07-10T03:18:49;100147.51;;;16.19;65.41
56582;BME280;42463;52.214;21.238;2022-07-10T03:21:15;100144.88;;;16.22;65.38
56582;BME280;42463;52.214;21.238;2022-07-10T03:23:41;100139.73;;;16.26;65.63
56582;BME280;42463;52.214;21.238;2022-07-10T03:26:07;100141.64;;;16.32;65.54
56582;BME280;42463;52.214;21.238;2022-07-10T03:28:33;100139.64;;;16.38;65.48
56582;BME280;42463;52.214;21.238;2022-07-10T03:31:00;100149.37;;;16.42;65.28
56582;BME280;42463;52.214;21.238;2022-07-10T03:33:27;100144.20;;;16.40;64.91
56582;BME280;42463;52.214;21.238;2022-07-10T03:35:54;100147.98;;;16.40;64.99
56582;BME280;42463;52.214;21.238;2022-07-10T03:38:20;100145.98;;;16.42;65.16
56582;BME280;42463;52.214;21.238;2022-07-10T03:40:46;100143.45;;;16.47;65.31
56582;BME280;42463;52.214;21.238;2022-07-10T03:43:13;100145.13;;;16.53;65.25
56582;BME280;42463;52.214;21.238;2022-07-10T03:45:39;100147.71;;;16.52;65.02
56582;BME280;42463;52.214;21.238;2022-07-10T03:48:06;100147.08;;;16.50;65.19
56582;BME280;42463;52.214;21.238;2022-07-10T03:50:32;100146.67;;;16.52;65.15
56582;BME280;42463;52.214;21.238;2022-07-10T03:52:58;100144.65;;;16.52;65.18
56582;BME280;42463;52.214;21.238;2022-07-10T03:55:25;100141.20;;;16.49;65.35
56582;BME280;42463;52.214;21.238;2022-07-10T03:57:51;100142.66;;;16.53;65.34
56582;BME280;42463;52.214;21.238;2022-07-10T04:00:21;100140.73;;;16.54;65.39
56582;BME280;42463;52.214;21.238;2022-07-10T04:02:48;100140.20;;;16.58;65.42
56582;BME280;42463;52.214;21.238;2022-07-10T04:05:14;100140.15;;;16.62;65.26
56582;BME280;42463;52.214;21.238;2022-07-10T04:07:40;100139.63;;;16.64;65.16
56582;BME280;42463;52.214;21.238;2022-07-10T04:10:09;100136.75;;;16.68;65.25
56582;BME280;42463;52.214;21.238;2022-07-10T04:12:35;100132.89;;;16.73;65.22
56582;BME280;42463;52.214;21.238;2022-07-10T04:15:01;100132.36;;;16.77;65.09
56582;BME280;42463;52.214;21.238;2022-07-10T04:17:27;100137.08;;;16.80;64.92
56582;BME280;42463;52.214;21.238;2022-07-10T04:19:54;100142.65;;;16.82;64.96
56582;BME280;42463;52.214;21.238;2022-07-10T04:22:20;100140.01;;;16.82;65.19
56582;BME280;42463;52.214;21.238;2022-07-10T04:24:46;100140.80;;;16.81;65.41
56582;BME280;42463;52.214;21.238;2022-07-10T04:27:12;100141.71;;;16.82;65.10
56582;BME280;42463;52.214;21.238;2022-07-10T04:29:40;100142.14;;;16.82;65.57
56582;BME280;42463;52.214;21.238;2022-07-10T04:32:08;100140.15;;;16.86;65.48
56582;BME280;42463;52.214;21.238;2022-07-10T04:34:35;100131.91;;;16.87;64.36
56582;BME280;42463;52.214;21.238;2022-07-10T04:37:00;100136.15;;;16.91;63.59
56582;BME280;42463;52.214;21.238;2022-07-10T04:39:27;100133.92;;;16.94;63.11
56582;BME280;42463;52.214;21.238;2022-07-10T04:41:53;100125.58;;;16.97;62.84
56582;BME280;42463;52.214;21.238;2022-07-10T04:44:20;100132.67;;;17.04;61.95
56582;BME280;42463;52.214;21.238;2022-07-10T04:46:46;100131.45;;;17.05;61.37
56582;BME280;42463;52.214;21.238;2022-07-10T04:49:13;100133.45;;;17.07;62.00
56582;BME280;42463;52.214;21.238;2022-07-10T04:51:39;100133.85;;;17.14;61.56
56582;BME280;42463;52.214;21.238;2022-07-10T04:54:06;100129.91;;;17.24;61.77
56582;BME280;42463;52.214;21.238;2022-07-10T04:56:32;100131.14;;;17.39;61.20
56582;BME280;42463;52.214;21.238;2022-07-10T04:58:58;100130.70;;;17.51;60.59
56582;BME280;42463;52.214;21.238;2022-07-10T05:01:24;100131.96;;;17.60;59.42
56582;BME280;42463;52.214;21.238;2022-07-10T05:03:50;100129.10;;;17.62;59.50
56582;BME280;42463;52.214;21.238;2022-07-10T05:06:17;100134.05;;;17.62;58.66
56582;BME280;42463;52.214;21.238;2022-07-10T05:08:43;100130.02;;;17.63;59.37
56582;BME280;42463;52.214;21.238;2022-07-10T05:11:09;100133.61;;;17.64;58.91
56582;BME280;42463;52.214;21.238;2022-07-10T05:13:35;100129.46;;;17.66;58.94
56582;BME280;42463;52.214;21.238;2022-07-10T05:16:01;100125.21;;;17.64;58.86
56582;BME280;42463;52.214;21.238;2022-07-10T05:18:27;100127.88;;;17.66;58.39
56582;BME280;42463;52.214;21.238;2022-07-10T05:20:54;100127.48;;;17.64;58.62
56582;BME280;42463;52.214;21.238;2022-07-10T05:23:20;100125.32;;;17.65;58.80
56582;BME280;42463;52.214;21.238;2022-07-10T05:25:46;100120.58;;;17.67;59.26
56582;BME280;42463;52.214;21.238;2022-07-10T05:28:12;100119.15;;;17.71;59.69
56582;BME280;42463;52.214;21.238;2022-07-10T05:30:39;100118.77;;;17.75;58.93
56582;BME280;42463;52.214;21.238;2022-07-10T05:33:05;100114.16;;;17.80;58.75
56582;BME280;42463;52.214;21.238;2022-07-10T05:35:31;100111.02;;;17.80;58.88
56582;BME280;42463;52.214;21.238;2022-07-10T05:37:57;100111.90;;;17.83;58.86
56582;BME280;42463;52.214;21.238;2022-07-10T05:40:24;100113.13;;;17.89;58.53
56582;BME280;42463;52.214;21.238;2022-07-10T05:42:50;100112.78;;;17.93;58.00
56582;BME280;42463;52.214;21.238;2022-07-10T05:45:17;100110.35;;;18.00;58.25
56582;BME280;42463;52.214;21.238;2022-07-10T05:47:43;100101.66;;;18.05;57.28
56582;BME280;42463;52.214;21.238;2022-07-10T05:50:11;100106.39;;;18.16;57.09
56582;BME280;42463;52.214;21.238;2022-07-10T05:52:37;100102.52;;;18.26;56.49
56582;BME280;42463;52.214;21.238;2022-07-10T05:55:05;100097.39;;;18.37;56.56
56582;BME280;42463;52.214;21.238;2022-07-10T05:57:33;100099.63;;;18.42;56.43
56582;BME280;42463;52.214;21.238;2022-07-10T06:00:00;100099.40;;;18.47;56.60
56582;BME280;42463;52.214;21.238;2022-07-10T06:02:36;100097.39;;;18.52;56.66
56582;BME280;42463;52.214;21.238;2022-07-10T06:05:03;100099.20;;;18.59;56.63
56582;BME280;42463;52.214;21.238;2022-07-10T06:07:30;100101.66;;;18.66;57.30
56582;BME280;42463;52.214;21.238;2022-07-10T06:09:56;100101.94;;;18.73;55.79
56582;BME280;42463;52.214;21.238;2022-07-10T06:12:22;100106.70;;;18.74;55.30
56582;BME280;42463;52.214;21.238;2022-07-10T06:14:48;100105.98;;;18.76;55.45
56582;BME280;42463;52.214;21.238;2022-07-10T06:17:15;100106.16;;;18.82;54.09
56582;BME280;42463;52.214;21.238;2022-07-10T06:19:41;100106.61;;;18.81;54.18
56582;BME280;42463;52.214;21.238;2022-07-10T06:22:07;100107.48;;;18.81;53.79
56582;BME280;42463;52.214;21.238;2022-07-10T06:24:51;100108.73;;;18.83;53.96
56582;BME280;42463;52.214;21.238;2022-07-10T06:27:17;100106.11;;;18.88;54.25
56582;BME280;42463;52.214;21.238;2022-07-10T06:29:44;100100.73;;;18.90;54.00
56582;BME280;42463;52.214;21.238;2022-07-10T06:32:11;100096.52;;;18.90;53.17
56582;BME280;42463;52.214;21.238;2022-07-10T06:34:37;100097.79;;;18.89;52.80
56582;BME280;42463;52.214;21.238;2022-07-10T06:37:03;100094.86;;;18.87;53.28
56582;BME280;42463;52.214;21.238;2022-07-10T06:39:33;100095.67;;;18.87;53.08
56582;BME280;42463;52.214;21.238;2022-07-10T06:41:59;100092.65;;;18.91;52.98
56582;BME280;42463;52.214;21.238;2022-07-10T06:44:26;100097.33;;;18.97;53.63
56582;BME280;42463;52.214;21.238;2022-07-10T06:46:52;100095.02;;;19.01;53.81
56582;BME280;42463;52.214;21.238;2022-07-10T06:49:32;100093.34;;;19.02;53.83
56582;BME280;42463;52.214;21.238;2022-07-10T06:51:57;100095.58;;;18.98;52.23
56582;BME280;42463;52.214;21.238;2022-07-10T06:54:24;100093.76;;;18.93;53.79
56582;BME280;42463;52.214;21.238;2022-07-10T06:56:50;100096.98;;;18.92;53.54
56582;BME280;42463;52.214;21.238;2022-07-10T06:59:16;100096.39;;;18.88;53.01
56582;BME280;42463;52.214;21.238;2022-07-10T07:01:42;100098.38;;;18.79;53.39
56582;BME280;42463;52.214;21.238;2022-07-10T07:04:08;100100.40;;;18.73;52.80
56582;BME280;42463;52.214;21.238;2022-07-10T07:06:34;100101.38;;;18.74;52.75
56582;BME280;42463;52.214;21.238;2022-07-10T07:09:00;100098.60;;;18.72;52.63
56582;BME280;42463;52.214;21.238;2022-07-10T07:11:26;100097.35;;;18.71;53.29
56582;BME280;42463;52.214;21.238;2022-07-10T07:13:53;100095.07;;;18.68;53.39
56582;BME280;42463;52.214;21.238;2022-07-10T07:16:19;100098.17;;;18.69;53.58
56582;BME280;42463;52.214;21.238;2022-07-10T07:18:52;100099.11;;;18.69;53.12
56582;BME280;42463;52.214;21.238;2022-07-10T07:21:20;100101.34;;;18.72;52.88
56582;BME280;42463;52.214;21.238;2022-07-10T07:24:04;100095.40;;;18.75;52.95
56582;BME280;42463;52.214;21.238;2022-07-10T07:26:30;100092.52;;;18.82;53.09
56582;BME280;42463;52.214;21.238;2022-07-10T07:28:56;100093.15;;;18.87;53.20
56582;BME280;42463;52.214;21.238;2022-07-10T07:31:22;100094.65;;;18.89;53.28
56582;BME280;42463;52.214;21.238;2022-07-10T07:33:49;100091.17;;;18.97;52.96
56582;BME280;42463;52.214;21.238;2022-07-10T07:36:15;100096.77;;;19.03;51.67
56582;BME280;42463;52.214;21.238;2022-07-10T07:38:41;100093.61;;;19.06;51.74
56582;BME280;42463;52.214;21.238;2022-07-10T07:41:08;100095.17;;;19.09;51.55
56582;BME280;42463;52.214;21.238;2022-07-10T07:43:35;100091.80;;;19.08;51.14
56582;BME280;42463;52.214;21.238;2022-07-10T07:46:01;100091.38;;;19.07;51.61
56582;BME280;42463;52.214;21.238;2022-07-10T07:48:28;100090.73;;;19.05;51.55
56582;BME280;42463;52.214;21.238;2022-07-10T07:50:54;100088.96;;;19.09;52.05
56582;BME280;42463;52.214;21.238;2022-07-10T07:53:20;100089.91;;;19.14;51.82
56582;BME280;42463;52.214;21.238;2022-07-10T07:55:46;100087.56;;;19.23;51.34
56582;BME280;42463;52.214;21.238;2022-07-10T07:58:12;100084.88;;;19.30;51.22
56582;BME280;42463;52.214;21.238;2022-07-10T08:00:39;100089.19;;;19.40;51.98
56582;BME280;42463;52.214;21.238;2022-07-10T08:03:06;100086.38;;;19.52;51.65
56582;BME280;42463;52.214;21.238;2022-07-10T08:05:33;100085.49;;;19.61;50.75
56582;BME280;42463;52.214;21.238;2022-07-10T08:08:00;100086.59;;;19.65;50.36
56582;BME280;42463;52.214;21.238;2022-07-10T08:10:32;100083.39;;;19.68;50.26
56582;BME280;42463;52.214;21.238;2022-07-10T08:12:58;100090.20;;;19.69;50.15
56582;BME280;42463;52.214;21.238;2022-07-10T08:15:24;100091.61;;;19.64;50.21
56582;BME280;42463;52.214;21.238;2022-07-10T08:17:52;100090.21;;;19.63;50.43
56582;BME280;42463;52.214;21.238;2022-07-10T08:20:18;100089.74;;;19.71;50.41
56582;BME280;42463;52.214;21.238;2022-07-10T08:22:45;100086.02;;;19.81;50.20
56582;BME280;42463;52.214;21.238;2022-07-10T08:25:13;100085.05;;;19.89;49.89
56582;BME280;42463;52.214;21.238;2022-07-10T08:27:40;100085.55;;;19.93;50.90
56582;BME280;42463;52.214;21.238;2022-07-10T08:30:09;100088.87;;;19.95;50.67
56582;BME280;42463;52.214;21.238;2022-07-10T08:32:35;100088.35;;;19.95;49.79
56582;BME280;42463;52.214;21.238;2022-07-10T08:35:01;100087.05;;;20.01;49.48
56582;BME280;42463;52.214;21.238;2022-07-10T08:37:28;100089.20;;;20.06;49.33
56582;BME280;42463;52.214;21.238;2022-07-10T08:39:54;100091.22;;;20.09;49.17
56582;BME280;42463;52.214;21.238;2022-07-10T08:42:20;100086.35;;;20.09;49.31
56582;BME280;42463;52.214;21.238;2022-07-10T08:44:46;100087.71;;;20.12;49.19
56582;BME280;42463;52.214;21.238;2022-07-10T08:47:13;100085.38;;;20.12;49.49
56582;BME280;42463;52.214;21.238;2022-07-10T08:49:46;100086.31;;;20.17;49.50
56582;BME280;42463;52.214;21.238;2022-07-10T08:52:23;100087.05;;;20.21;48.78
56582;BME280;42463;52.214;21.238;2022-07-10T08:54:50;100081.88;;;20.20;47.53
56582;BME280;42463;52.214;21.238;2022-07-10T08:57:18;100082.30;;;20.19;48.81
56582;BME280;42463;52.214;21.238;2022-07-10T08:59:45;100083.89;;;20.16;47.84
56582;BME280;42463;52.214;21.238;2022-07-10T09:02:11;100088.84;;;20.16;47.83
56582;BME280;42463;52.214;21.238;2022-07-10T09:04:38;100092.54;;;20.17;48.07
56582;BME280;42463;52.214;21.238;2022-07-10T09:07:05;100091.34;;;20.20;48.71
56582;BME280;42463;52.214;21.238;2022-07-10T09:09:31;100090.61;;;20.24;47.43
56582;BME280;42463;52.214;21.238;2022-07-10T09:12:00;100087.37;;;20.27;46.65
56582;BME280;42463;52.214;21.238;2022-07-10T09:14:26;100084.02;;;20.28;47.18
56582;BME280;42463;52.214;21.238;2022-07-10T09:16:54;100080.59;;;20.26;48.07
56582;BME280;42463;52.214;21.238;2022-07-10T09:19:22;100081.42;;;20.29;48.07
56582;BME280;42463;52.214;21.238;2022-07-10T09:21:51;100078.48;;;20.35;48.35
56582;BME280;42463;52.214;21.238;2022-07-10T09:24:17;100076.84;;;20.41;47.06
56582;BME280;42463;52.214;21.238;2022-07-10T09:26:58;100079.46;;;20.39;47.04
56582;BME280;42463;52.214;21.238;2022-07-10T09:29:28;100081.95;;;20.39;48.30
56582;BME280;42463;52.214;21.238;2022-07-10T09:31:56;100077.05;;;20.39;49.11
56582;BME280;42463;52.214;21.238;2022-07-10T09:36:56;100069.43;;;20.54;48.93
56582;BME280;42463;52.214;21.238;2022-07-10T09:39:23;100063.33;;;20.67;46.49
56582;BME280;42463;52.214;21.238;2022-07-10T09:41:49;100062.44;;;20.82;45.89
56582;BME280;42463;52.214;21.238;2022-07-10T09:44:15;100061.63;;;20.96;46.10
56582;BME280;42463;52.214;21.238;2022-07-10T09:46:41;100064.05;;;21.06;46.56
56582;BME280;42463;52.214;21.238;2022-07-10T09:49:10;100057.52;;;21.16;45.32
56582;BME280;42463;52.214;21.238;2022-07-10T09:51:38;100052.01;;;21.27;44.80
56582;BME280;42463;52.214;21.238;2022-07-10T09:54:06;100053.80;;;21.41;44.83
56582;BME280;42463;52.214;21.238;2022-07-10T09:56:40;100054.63;;;21.42;44.44
56582;BME280;42463;52.214;21.238;2022-07-10T09:59:11;100051.91;;;21.31;44.74
56582;BME280;42463;52.214;21.238;2022-07-10T10:01:44;100051.52;;;21.21;45.24
56582;BME280;42463;52.214;21.238;2022-07-10T10:04:12;100056.91;;;21.05;44.65
56582;BME280;42463;52.214;21.238;2022-07-10T10:06:40;100051.92;;;20.85;45.17
56582;BME280;42463;52.214;21.238;2022-07-10T10:09:10;100055.52;;;20.65;45.81
56582;BME280;42463;52.214;21.238;2022-07-10T10:11:40;100057.86;;;20.52;46.60
56582;BME280;42463;52.214;21.238;2022-07-10T10:14:07;100052.16;;;20.42;46.47
56582;BME280;42463;52.214;21.238;2022-07-10T10:16:34;100052.21;;;20.36;46.22
56582;BME280;42463;52.214;21.238;2022-07-10T10:19:01;100048.36;;;20.38;46.45
56582;BME280;42463;52.214;21.238;2022-07-10T10:21:45;100049.58;;;20.48;46.23
56582;BME280;42463;52.214;21.238;2022-07-10T10:24:12;100040.77;;;20.56;45.11
56582;BME280;42463;52.214;21.238;2022-07-10T10:26:39;100042.96;;;20.57;45.04
56582;BME280;42463;52.214;21.238;2022-07-10T10:29:06;100043.63;;;20.53;45.77
56582;BME280;42463;52.214;21.238;2022-07-10T10:31:35;100056.33;;;20.44;45.55
56582;BME280;42463;52.214;21.238;2022-07-10T10:34:01;100054.89;;;20.29;45.23
56582;BME280;42463;52.214;21.238;2022-07-10T10:36:48;100057.09;;;20.16;45.14
56582;BME280;42463;52.214;21.238;2022-07-10T10:39:16;100053.55;;;20.02;46.52
56582;BME280;42463;52.214;21.238;2022-07-10T10:41:48;100053.33;;;19.95;46.78
56582;BME280;42463;52.214;21.238;2022-07-10T10:44:29;100058.58;;;19.90;47.74
56582;BME280;42463;52.214;21.238;2022-07-10T10:47:02;100057.84;;;19.92;47.68
56582;BME280;42463;52.214;21.238;2022-07-10T10:49:49;100056.05;;;19.93;46.84
56582;BME280;42463;52.214;21.238;2022-07-10T10:52:15;100052.36;;;19.90;46.28
56582;BME280;42463;52.214;21.238;2022-07-10T10:55:03;100058.08;;;19.87;46.28
56582;BME280;42463;52.214;21.238;2022-07-10T10:57:42;100058.68;;;19.85;46.40
56582;BME280;42463;52.214;21.238;2022-07-10T11:00:31;100049.84;;;19.88;46.50
56582;BME280;42463;52.214;21.238;2022-07-10T11:03:18;100051.13;;;19.95;47.61
56582;BME280;42463;52.214;21.238;2022-07-10T11:05:47;100051.42;;;20.00;47.47
56582;BME280;42463;52.214;21.238;2022-07-10T11:08:14;100045.48;;;20.06;46.32
56582;BME280;42463;52.214;21.238;2022-07-10T11:11:00;100046.84;;;20.09;45.88
56582;BME280;42463;52.214;21.238;2022-07-10T11:13:28;100044.65;;;20.16;45.55
56582;BME280;42463;52.214;21.238;2022-07-10T11:15:55;100042.64;;;20.30;45.38
56582;BME280;42463;52.214;21.238;2022-07-10T11:18:23;100035.48;;;20.44;44.08
56582;BME280;42463;52.214;21.238;2022-07-10T11:20:54;100036.20;;;20.61;44.34
56582;BME280;42463;52.214;21.238;2022-07-10T11:23:54;100034.26;;;20.75;42.33
56582;BME280;42463;52.214;21.238;2022-07-10T11:26:28;100028.43;;;20.92;42.30
56582;BME280;42463;52.214;21.238;2022-07-10T11:28:58;100025.11;;;21.10;42.27
56582;BME280;42463;52.214;21.238;2022-07-10T11:31:27;100025.82;;;21.19;41.25
56582;BME280;42463;52.214;21.238;2022-07-10T11:33:55;100028.11;;;21.29;42.07
56582;BME280;42463;52.214;21.238;2022-07-10T11:36:23;100032.44;;;21.40;43.19
56582;BME280;42463;52.214;21.238;2022-07-10T11:38:59;100032.58;;;21.51;42.38
56582;BME280;42463;52.214;21.238;2022-07-10T11:41:26;100031.42;;;21.66;42.93
56582;BME280;42463;52.214;21.238;2022-07-10T11:43:55;100039.83;;;21.79;41.64
56582;BME280;42463;52.214;21.238;2022-07-10T11:46:24;100033.94;;;21.83;41.81
56582;BME280;42463;52.214;21.238;2022-07-10T11:48:51;100039.52;;;21.90;41.50
56582;BME280;42463;52.214;21.238;2022-07-10T11:51:24;100034.59;;;21.96;41.71
56582;BME280;42463;52.214;21.238;2022-07-10T11:54:02;100036.62;;;22.02;42.56
56582;BME280;42463;52.214;21.238;2022-07-10T11:56:30;100038.19;;;22.10;40.81
56582;BME280;42463;52.214;21.238;2022-07-10T11:59:00;100037.92;;;22.13;41.32
56582;BME280;42463;52.214;21.238;2022-07-10T12:01:27;100033.75;;;22.21;39.77
56582;BME280;42463;52.214;21.238;2022-07-10T12:04:02;100032.77;;;22.24;39.47
56582;BME280;42463;52.214;21.238;2022-07-10T12:06:29;100034.70;;;22.30;39.18
56582;BME280;42463;52.214;21.238;2022-07-10T12:08:59;100028.73;;;22.36;39.34
56582;BME280;42463;52.214;21.238;2022-07-10T12:11:26;100031.02;;;22.42;40.66
56582;BME280;42463;52.214;21.238;2022-07-10T12:13:54;100031.75;;;22.43;39.35
56582;BME280;42463;52.214;21.238;2022-07-10T12:16:37;100028.05;;;22.48;38.76
56582;BME280;42463;52.214;21.238;2022-07-10T12:19:05;100027.30;;;22.51;38.02
56582;BME280;42463;52.214;21.238;2022-07-10T12:21:32;100023.30;;;22.52;36.83
56582;BME280;42463;52.214;21.238;2022-07-10T12:23:58;100025.80;;;22.56;39.47
56582;BME280;42463;52.214;21.238;2022-07-10T12:26:32;100024.86;;;22.66;38.77
56582;BME280;42463;52.214;21.238;2022-07-10T12:28:59;100024.56;;;22.69;37.76
56582;BME280;42463;52.214;21.238;2022-07-10T12:31:29;100021.31;;;22.66;38.48
56582;BME280;42463;52.214;21.238;2022-07-10T12:33:59;100018.89;;;22.62;37.83
56582;BME280;42463;52.214;21.238;2022-07-10T12:36:27;100020.61;;;22.50;37.43
56582;BME280;42463;52.214;21.238;2022-07-10T12:39:06;100020.63;;;22.34;39.04
56582;BME280;42463;52.214;21.238;2022-07-10T12:41:32;100024.35;;;22.18;39.94
56582;BME280;42463;52.214;21.238;2022-07-10T12:43:58;100023.55;;;22.09;41.00
56582;BME280;42463;52.214;21.238;2022-07-10T12:46:25;100027.10;;;22.05;40.53